DEL2431 EGLL-KLAX
Flight info
| Callsign | DEL2431 |
|---|---|
| Flight time | N/A |
| Altitude | 34000 |
| Route | CPT L9 DIDZA N14 OKTAD DCT MEDOG DCT VATRY DCT ADMUP DCT KORAK DCT CON DCT SUNOT/M081F360 DCT 58N020W 58N030W 58N040W 57N050W DCT HOIST/N0466F360 DCT 5430N06000W 53N070W/N0466F380 51N080W 4830N09000W DCT KP12G DCT KP84A DCT KD63U/N0465F400 DCT KU51Q DCT PROMT Q88 HAKMN ANJLL4 |
| Aircraft | A343/H-SDE2E3FGHIJ4J5M1RWXY/LB1D1 |
Departure
| Time | 2026-05-04 22:31 |
|---|---|
| Airport | London Heathrow Airport (EGLL) |
Arrival
| Time | N/A |
|---|---|
| Airport | Los Angeles International Airport (KLAX) |
| Time | Latitude | Longitude | Altitude | Speed | Heading |
|---|---|---|---|---|---|
| 2026-05-04 21:57 | 51.47315 | -0.47723 | 16 ft | 0 kts | 92° |
| 2026-05-04 22:19 | 51.47316 | -0.47747 | 97 ft | 4 kts | 89° |
| 2026-05-04 22:19 | 51.47314 | -0.47790 | 94 ft | 4 kts | 82° |
| 2026-05-04 22:19 | 51.47309 | -0.47831 | 95 ft | 0 kts | 69° |
| 2026-05-04 22:20 | 51.47306 | -0.47841 | 91 ft | 3 kts | 79° |
| 2026-05-04 22:21 | 51.47307 | -0.47872 | 97 ft | 3 kts | 124° |
| 2026-05-04 22:21 | 51.47316 | -0.47891 | 96 ft | 0 kts | 160° |
| 2026-05-04 22:23 | 51.47316 | -0.47890 | 96 ft | 1 kts | 160° |
| 2026-05-04 22:24 | 51.47255 | -0.47873 | 95 ft | 14 kts | 174° |
| 2026-05-04 22:24 | 51.47124 | -0.47866 | 96 ft | 24 kts | 179° |
| 2026-05-04 22:24 | 51.46961 | -0.47863 | 97 ft | 23 kts | 179° |
| 2026-05-04 22:24 | 51.46808 | -0.47865 | 96 ft | 21 kts | 180° |
| 2026-05-04 22:25 | 51.46677 | -0.47888 | 96 ft | 10 kts | 214° |
| 2026-05-04 22:25 | 51.46656 | -0.47976 | 94 ft | 9 kts | 261° |
| 2026-05-04 22:25 | 51.46652 | -0.48053 | 96 ft | 1 kts | 267° |
| 2026-05-04 22:25 | 51.46651 | -0.48076 | 89 ft | 0 kts | 267° |
| 2026-05-04 22:27 | 51.46651 | -0.48081 | 88 ft | 4 kts | 268° |
| 2026-05-04 22:28 | 51.46651 | -0.48230 | 98 ft | 20 kts | 270° |
| 2026-05-04 22:28 | 51.46651 | -0.48506 | 98 ft | 28 kts | 270° |
| 2026-05-04 22:28 | 51.46636 | -0.48721 | 98 ft | 8 kts | 232° |
| 2026-05-04 22:28 | 51.46611 | -0.48752 | 98 ft | 0 kts | 208° |
| 2026-05-04 22:30 | 51.46549 | -0.48776 | 97 ft | 19 kts | 179° |
| 2026-05-04 22:30 | 51.46468 | -0.48608 | 98 ft | 23 kts | 86° |
| 2026-05-04 22:30 | 51.46485 | -0.48223 | 100 ft | 55 kts | 87° |
| 2026-05-04 22:30 | 51.46485 | -0.47344 | 96 ft | 101 kts | 92° |
| 2026-05-04 22:31 | 51.46486 | -0.45985 | 95 ft | 149 kts | 89° |
| 2026-05-04 22:31 | 51.46497 | -0.44074 | 163 ft | 185 kts | 90° |
| 2026-05-04 22:31 | 51.46317 | -0.42142 | 373 ft | 191 kts | 119° |
| 2026-05-04 22:31 | 51.45441 | -0.41493 | 1287 ft | 119 kts | 223° |
| 2026-05-04 22:32 | 51.45371 | -0.42752 | 937 ft | 159 kts | 315° |